Terminal Aerodrome Forecast
Issued by NWS Wilmington, OH

Current Version | Previous Version | Text Only | Print | Product List | Glossary Off
Versions: 1 2 3 4 5 6 7 8 9 10 11 12 13 14 15 16 17 18 19

000
FTUS41 KILN 092157 AAC
TAFDAY
TAF AMD
KDAY 092157Z 0922/1018 22010KT 4SM -SN BR BKN015 OVC045
      TEMPO 0922/0923 1SM -SN BR
     FM100000 28014G24KT P6SM VCSH OVC015
     FM100300 30012G22KT P6SM BKN022
     FM100900 27010KT P6SM SCT025 BKN200
     FM101200 24009KT P6SM BKN200
     FM101500 24012G18KT P6SM BKN080=

USA.gov is the U.S. government's official web portal to all federal, state and local government web resources and services.